createdAt,value
2022-10-29T00:00:19.428Z,13.13
2022-10-29T00:02:47.485Z,13.12
2022-10-29T00:05:15.582Z,12.98
2022-10-29T00:07:43.638Z,12.68
2022-10-29T00:10:12.936Z,12.65
2022-10-29T00:12:40.962Z,12.57
2022-10-29T00:15:10.160Z,12.95
2022-10-29T00:17:38.115Z,13.02
2022-10-29T00:22:36.182Z,13.30
2022-10-29T00:25:04.588Z,13.12
2022-10-29T00:27:34.005Z,12.92
2022-10-29T00:30:01.960Z,13.26
2022-10-29T00:32:29.910Z,13.10
2022-10-29T00:34:57.858Z,13.49
2022-10-29T00:37:25.842Z,13.32
2022-10-29T00:39:53.852Z,13.30
2022-10-29T00:42:21.925Z,13.31
2022-10-29T00:44:51.382Z,12.77
2022-10-29T00:47:23.472Z,13.45
2022-10-29T00:49:55.598Z,13.31
2022-10-29T00:52:26.892Z,13.27
2022-10-29T00:54:56.090Z,13.01
2022-10-29T00:57:28.310Z,12.83
2022-10-29T00:59:58.053Z,12.84
2022-10-29T01:02:27.041Z,12.99
2022-10-29T01:04:55.082Z,12.91
2022-10-29T01:07:23.821Z,12.96
2022-10-29T01:09:52.086Z,12.64
2022-10-29T01:12:37.835Z,12.71
2022-10-29T01:15:14.223Z,12.57
2022-10-29T01:17:55.581Z,12.73
2022-10-29T01:21:00.430Z,12.72
2022-10-29T01:24:03.778Z,12.90
2022-10-29T01:26:53.131Z,13.06
2022-10-29T01:29:37.062Z,12.67
2022-10-29T01:32:12.234Z,12.69
2022-10-29T01:34:47.713Z,12.79
2022-10-29T01:37:21.976Z,12.69
2022-10-29T01:39:58.044Z,13.10
2022-10-29T01:42:30.978Z,13.32
2022-10-29T01:45:09.134Z,13.28
2022-10-29T01:47:44.153Z,13.11
2022-10-29T01:50:16.940Z,13.07
2022-10-29T01:52:46.042Z,13.12
2022-10-29T01:55:17.883Z,12.87
2022-10-29T01:57:45.911Z,13.14
2022-10-29T02:00:17.348Z,13.36
2022-10-29T02:03:06.705Z,12.85
2022-10-29T02:05:39.288Z,12.61
2022-10-29T02:08:18.990Z,12.59
2022-10-29T02:10:53.609Z,12.40
2022-10-29T02:13:29.855Z,13.08
2022-10-29T02:15:59.909Z,13.04
2022-10-29T02:18:29.397Z,13.27
2022-10-29T02:20:57.467Z,13.35
2022-10-29T02:23:25.492Z,13.16
2022-10-29T02:25:53.542Z,12.68
2022-10-29T02:28:21.568Z,12.96
2022-10-29T02:30:49.641Z,13.07
2022-10-29T02:33:17.653Z,12.61
2022-10-29T02:35:47.009Z,12.88
2022-10-29T02:38:14.951Z,12.78
2022-10-29T02:40:42.971Z,12.80
2022-10-29T02:43:11.287Z,12.65
2022-10-29T02:45:39.289Z,12.74
2022-10-29T02:48:07.647Z,12.52
2022-10-29T02:50:35.642Z,12.37
2022-10-29T02:53:05.021Z,12.12
2022-10-29T02:55:33.012Z,11.75
2022-10-29T02:58:01.076Z,11.84
2022-10-29T03:00:29.120Z,11.79
2022-10-29T03:02:57.232Z,11.74
2022-10-29T03:05:25.304Z,12.21
2022-10-29T03:07:53.238Z,12.00
2022-10-29T03:10:22.565Z,12.46
2022-10-29T03:12:50.533Z,12.47
2022-10-29T03:15:18.572Z,12.57
2022-10-29T03:17:46.512Z,12.75
2022-10-29T03:20:14.540Z,12.33
2022-10-29T03:22:42.501Z,12.67
2022-10-29T03:25:11.062Z,13.02
2022-10-29T03:27:43.530Z,12.86
2022-10-29T03:30:13.342Z,13.21
2022-10-29T03:32:41.739Z,13.21
2022-10-29T03:35:11.581Z,12.95
2022-10-29T03:37:39.628Z,12.82
2022-10-29T03:40:09.345Z,13.01
2022-10-29T03:42:38.876Z,12.69
2022-10-29T03:45:10.048Z,12.69
2022-10-29T03:47:38.047Z,12.76
2022-10-29T03:50:06.793Z,13.06
2022-10-29T03:52:34.747Z,12.91
2022-10-29T03:55:02.851Z,12.67
2022-10-29T03:57:30.836Z,13.49
2022-10-29T03:59:58.820Z,13.20
2022-10-29T04:02:28.866Z,12.90
2022-10-29T04:04:56.958Z,13.27
2022-10-29T04:07:24.924Z,13.08
2022-10-29T04:09:52.976Z,12.79
2022-10-29T04:12:21.033Z,12.35
2022-10-29T04:14:49.028Z,12.44
2022-10-29T04:17:17.011Z,12.14
2022-10-29T04:19:46.370Z,12.00
2022-10-29T04:28:41.817Z,12.02
2022-10-29T04:30:38.198Z,11.93
2022-10-29T04:33:06.222Z,12.03
2022-10-29T04:35:35.535Z,12.29
2022-10-29T04:38:09.728Z,12.29
2022-10-29T04:40:37.710Z,12.57
2022-10-29T04:43:05.696Z,12.82
2022-10-29T04:45:33.725Z,12.92
2022-10-29T04:48:02.526Z,12.51
2022-10-29T04:50:31.486Z,12.54
2022-10-29T04:53:01.250Z,12.91
2022-10-29T04:55:30.277Z,12.58
2022-10-29T04:57:58.655Z,12.79
2022-10-29T05:00:26.936Z,12.98
2022-10-29T05:02:55.476Z,12.55
2022-10-29T05:05:24.127Z,12.64
2022-10-29T05:07:58.297Z,12.93
2022-10-29T05:10:30.174Z,13.21
2022-10-29T05:12:59.387Z,13.14
2022-10-29T05:15:28.003Z,12.57
2022-10-29T05:17:56.441Z,13.28
2022-10-29T05:20:25.934Z,13.12
2022-10-29T05:23:00.838Z,12.98
2022-10-29T05:25:31.480Z,13.34
2022-10-29T05:28:03.691Z,13.04
2022-10-29T05:30:31.782Z,13.31
2022-10-29T05:33:00.071Z,13.09
2022-10-29T05:35:28.491Z,13.21
2022-10-29T05:37:57.661Z,12.98
2022-10-29T05:40:25.752Z,12.79
2022-10-29T05:42:55.390Z,12.37
2022-10-29T05:45:23.566Z,13.12
2022-10-29T05:47:57.489Z,12.92
2022-10-29T05:50:26.428Z,12.80
2022-10-29T05:52:58.105Z,12.49
2022-10-29T05:55:27.189Z,12.73
2022-10-29T05:57:58.282Z,12.98
2022-10-29T06:00:27.230Z,12.75
2022-10-29T06:02:55.685Z,13.00
2022-10-29T06:05:24.433Z,13.34
2022-10-29T06:07:56.106Z,13.08
2022-10-29T06:10:24.964Z,12.87
2022-10-29T06:12:53.051Z,13.31
2022-10-29T06:15:22.857Z,13.12
2022-10-29T06:17:51.162Z,12.91
2022-10-29T06:20:21.177Z,12.72
2022-10-29T06:22:49.492Z,13.21
2022-10-29T06:25:17.658Z,13.22
2022-10-29T06:27:45.635Z,13.17
2022-10-29T06:30:14.250Z,13.09
2022-10-29T06:32:48.164Z,13.12
2022-10-29T06:35:16.205Z,13.25
2022-10-29T06:37:44.164Z,13.70
2022-10-29T06:40:12.551Z,13.80
2022-10-29T06:42:40.510Z,13.60
2022-10-29T06:45:09.411Z,13.69
2022-10-29T06:47:41.033Z,13.27
2022-10-29T06:50:12.203Z,13.83
2022-10-29T06:52:40.290Z,14.66
2022-10-29T06:55:09.637Z,15.01
2022-10-29T06:57:37.820Z,14.91
2022-10-29T07:00:08.569Z,15.20
2022-10-29T07:02:36.922Z,15.40
2022-10-29T07:05:05.194Z,15.24
2022-10-29T07:07:34.517Z,15.55
2022-10-29T07:10:02.600Z,15.43
2022-10-29T07:12:30.633Z,15.11
2022-10-29T07:14:58.651Z,15.46
2022-10-29T07:17:26.663Z,15.39
2022-10-29T07:19:54.626Z,14.63
2022-10-29T07:22:22.608Z,14.60
2022-10-29T07:24:53.039Z,15.19
2022-10-29T07:27:23.129Z,15.45
2022-10-29T07:29:51.162Z,15.43
2022-10-29T07:32:19.108Z,15.26
2022-10-29T07:34:47.056Z,15.01
2022-10-29T07:37:15.088Z,14.59
2022-10-29T07:39:43.051Z,15.10
2022-10-29T07:42:12.385Z,15.73
2022-10-29T07:44:40.347Z,15.75
2022-10-29T07:47:08.386Z,16.10
2022-10-29T07:49:36.349Z,16.19
2022-10-29T07:52:04.469Z,15.73
2022-10-29T07:54:32.431Z,16.42
2022-10-29T07:57:00.417Z,16.25
2022-10-29T07:59:29.727Z,16.07
2022-10-29T08:01:57.977Z,15.99
2022-10-29T08:04:25.997Z,16.40
2022-10-29T08:06:53.936Z,16.27
2022-10-29T08:09:21.934Z,16.45
2022-10-29T08:11:49.906Z,16.64
2022-10-29T08:14:20.324Z,16.56
2022-10-29T08:16:54.682Z,16.86
2022-10-29T08:19:23.003Z,16.62
2022-10-29T08:21:50.942Z,16.92
2022-10-29T08:24:19.876Z,16.92
2022-10-29T08:26:47.814Z,16.67
2022-10-29T08:29:15.817Z,16.78
2022-10-29T08:31:43.831Z,16.35
2022-10-29T08:34:13.196Z,16.26
2022-10-29T08:36:42.476Z,16.64
2022-10-29T08:39:10.410Z,16.13
2022-10-29T08:41:49.834Z,16.78
2022-10-29T08:44:34.837Z,17.09
2022-10-29T08:47:10.346Z,17.56
2022-10-29T08:49:46.357Z,17.93
2022-10-29T08:52:20.212Z,17.95
2022-10-29T08:54:53.975Z,17.48
2022-10-29T08:57:25.205Z,17.91
2022-10-29T09:00:04.378Z,18.26
2022-10-29T09:02:32.421Z,18.47
2022-10-29T09:05:02.784Z,18.85
2022-10-29T09:07:48.164Z,18.14
2022-10-29T09:10:28.169Z,17.81
2022-10-29T09:13:11.066Z,17.79
2022-10-29T09:15:57.708Z,18.57
2022-10-29T09:18:35.384Z,18.91
2022-10-29T09:21:13.205Z,18.74
2022-10-29T09:23:56.184Z,18.93
2022-10-29T09:26:31.058Z,18.68
2022-10-29T09:29:15.462Z,18.10
2022-10-29T09:31:47.809Z,18.97
2022-10-29T09:34:20.664Z,19.28
2022-10-29T09:36:50.251Z,18.43
2022-10-29T09:39:33.942Z,17.68
2022-10-29T09:42:03.836Z,18.22
2022-10-29T09:44:48.391Z,18.36
2022-10-29T09:47:28.512Z,19.07
2022-10-29T09:50:08.909Z,19.00
2022-10-29T09:52:43.082Z,18.90
2022-10-29T09:55:19.878Z,19.11
2022-10-29T09:57:49.743Z,19.45
2022-10-29T10:00:22.660Z,18.54
2022-10-29T10:02:58.744Z,18.88
2022-10-29T10:05:29.274Z,18.21
2022-10-29T10:08:13.014Z,18.52
2022-10-29T10:10:52.925Z,18.32
2022-10-29T10:13:26.225Z,18.88
2022-10-29T10:15:57.734Z,18.84
2022-10-29T10:18:27.500Z,19.24
2022-10-29T10:21:05.210Z,19.10
2022-10-29T10:23:44.207Z,18.40
2022-10-29T10:26:34.293Z,18.97
2022-10-29T10:29:14.548Z,19.38
2022-10-29T10:31:44.349Z,19.57
2022-10-29T10:34:18.708Z,18.85
2022-10-29T10:36:51.351Z,18.38
2022-10-29T10:39:28.296Z,19.41
2022-10-29T10:41:57.895Z,18.95
2022-10-29T10:44:26.090Z,19.23
2022-10-29T10:46:57.881Z,19.68
2022-10-29T10:49:33.041Z,20.04
2022-10-29T10:52:04.345Z,19.94
2022-10-29T10:54:37.915Z,20.59
2022-10-29T10:57:20.261Z,19.71
2022-10-29T10:59:55.649Z,19.37
2022-10-29T11:02:30.592Z,18.56
2022-10-29T11:05:05.155Z,19.18
2022-10-29T11:07:38.509Z,19.18
2022-10-29T11:10:12.098Z,18.88
2022-10-29T11:12:45.191Z,18.64
2022-10-29T11:15:19.142Z,18.92
2022-10-29T11:17:54.704Z,18.95
2022-10-29T11:20:27.080Z,18.96
2022-10-29T11:23:03.672Z,19.27
2022-10-29T11:25:41.478Z,19.08
2022-10-29T11:28:22.289Z,19.20
2022-10-29T11:30:56.036Z,19.00
2022-10-29T11:33:35.115Z,19.54
2022-10-29T11:36:12.849Z,20.27
2022-10-29T11:38:46.495Z,19.36
2022-10-29T11:41:25.624Z,19.31
2022-10-29T11:43:53.677Z,20.06
2022-10-29T11:46:30.884Z,20.95
2022-10-29T11:49:11.802Z,21.29
2022-10-29T11:51:52.913Z,20.49
2022-10-29T11:54:37.258Z,20.87
2022-10-29T11:57:12.958Z,20.85
2022-10-29T11:59:54.757Z,20.37
2022-10-29T12:02:38.945Z,20.23
2022-10-29T12:05:16.903Z,21.22
2022-10-29T12:08:00.447Z,22.01
2022-10-29T12:10:51.990Z,21.24
2022-10-29T12:13:40.937Z,21.01
2022-10-29T12:16:24.363Z,21.52
2022-10-29T12:18:59.462Z,22.60
2022-10-29T12:21:37.312Z,22.09
2022-10-29T12:24:20.269Z,23.02
2022-10-29T12:26:56.263Z,23.09
2022-10-29T12:29:33.901Z,21.10
2022-10-29T12:32:09.817Z,21.54
2022-10-29T12:34:45.844Z,21.77
2022-10-29T12:37:22.206Z,22.14
2022-10-29T12:39:55.705Z,22.36
2022-10-29T12:42:26.563Z,22.51
2022-10-29T12:45:07.172Z,22.00
2022-10-29T12:47:41.812Z,22.19
2022-10-29T12:50:24.115Z,23.01
2022-10-29T12:53:00.440Z,22.85
2022-10-29T12:55:29.402Z,22.47
2022-10-29T12:57:57.364Z,23.66
2022-10-29T13:00:50.901Z,23.02
2022-10-29T13:03:56.264Z,23.10
2022-10-29T13:06:47.327Z,22.83
2022-10-29T13:09:18.537Z,22.70
2022-10-29T13:11:49.891Z,22.85
2022-10-29T13:14:25.054Z,23.15
2022-10-29T13:16:55.472Z,22.76
2022-10-29T13:19:34.941Z,22.29
2022-10-29T13:22:34.799Z,21.56
2022-10-29T13:25:49.703Z,22.26
2022-10-29T13:28:47.081Z,22.28
2022-10-29T13:31:48.275Z,22.76
2022-10-29T13:34:52.961Z,21.88
2022-10-29T13:38:02.858Z,21.77
2022-10-29T13:40:57.438Z,21.77
2022-10-29T13:43:26.274Z,23.27
2022-10-29T13:46:10.966Z,22.81
2022-10-29T13:48:39.947Z,22.71
2022-10-29T13:51:13.000Z,23.09
2022-10-29T13:53:48.095Z,22.31
2022-10-29T13:56:24.052Z,21.96
2022-10-29T13:58:54.923Z,21.97
2022-10-29T14:01:25.873Z,21.66
2022-10-29T14:04:06.487Z,21.73
2022-10-29T14:06:40.589Z,22.46
2022-10-29T14:09:16.506Z,22.25
2022-10-29T14:11:49.957Z,23.15
2022-10-29T14:14:27.988Z,23.69
2022-10-29T14:17:18.182Z,23.08
2022-10-29T14:19:47.990Z,22.75
2022-10-29T14:22:36.706Z,22.99
2022-10-29T14:25:27.633Z,22.71
2022-10-29T14:28:20.519Z,23.39
2022-10-29T14:30:50.135Z,23.19
2022-10-29T14:33:22.087Z,23.21
2022-10-29T14:35:50.293Z,22.99
2022-10-29T14:38:22.127Z,23.05
2022-10-29T14:40:50.163Z,22.59
2022-10-29T14:43:25.301Z,23.44
2022-10-29T14:45:54.114Z,22.42
2022-10-29T14:48:22.266Z,22.78
2022-10-29T14:50:56.476Z,23.36
2022-10-29T14:53:31.385Z,23.03
2022-10-29T14:56:01.141Z,21.60
2022-10-29T14:58:31.505Z,21.32
2022-10-29T15:01:01.969Z,21.03
2022-10-29T15:03:34.188Z,20.73
2022-10-29T15:06:14.668Z,20.31
2022-10-29T15:08:46.179Z,20.97
2022-10-29T15:11:38.616Z,20.20
2022-10-29T15:14:22.634Z,20.92
2022-10-29T15:16:50.807Z,20.74
2022-10-29T15:19:19.336Z,20.18
2022-10-29T15:21:47.437Z,20.13
2022-10-29T15:24:20.582Z,20.62
2022-10-29T15:26:51.112Z,21.02
2022-10-29T15:29:29.107Z,20.45
2022-10-29T15:32:00.499Z,20.84
2022-10-29T15:34:33.343Z,20.87
2022-10-29T15:37:16.513Z,20.92
2022-10-29T15:40:13.390Z,20.60
2022-10-29T15:42:42.029Z,20.55
2022-10-29T15:45:30.906Z,20.52
2022-10-29T15:48:19.534Z,20.57
2022-10-29T15:50:49.042Z,20.68
2022-10-29T15:53:18.269Z,20.40
2022-10-29T15:55:46.457Z,20.54
2022-10-29T15:58:17.007Z,20.61
2022-10-29T16:00:45.493Z,20.30
2022-10-29T16:03:16.281Z,20.47
2022-10-29T16:05:47.076Z,19.95
2022-10-29T16:08:24.141Z,20.16
2022-10-29T16:10:52.474Z,19.95
2022-10-29T16:13:21.088Z,20.05
2022-10-29T16:15:49.060Z,19.15
2022-10-29T16:18:17.391Z,19.30
2022-10-29T16:20:45.595Z,19.27
2022-10-29T16:23:14.535Z,19.43
2022-10-29T16:25:43.990Z,19.54
2022-10-29T16:28:12.017Z,19.07
2022-10-29T16:33:13.496Z,18.56
2022-10-29T16:35:41.446Z,18.48
2022-10-29T16:38:10.276Z,18.41
2022-10-29T16:40:38.351Z,18.13
2022-10-29T16:43:07.701Z,18.20
2022-10-29T16:45:35.798Z,17.41
2022-10-29T16:48:04.405Z,17.77
2022-10-29T16:50:33.735Z,17.89
2022-10-29T16:53:03.561Z,17.84
2022-10-29T16:55:31.628Z,17.82
2022-10-29T16:58:00.063Z,17.53
2022-10-29T17:00:31.986Z,17.77
2022-10-29T17:03:04.950Z,17.55
2022-10-29T17:05:40.733Z,17.48
2022-10-29T17:08:09.046Z,17.48
2022-10-29T17:10:37.817Z,17.39
2022-10-29T17:13:07.171Z,16.90
2022-10-29T17:15:39.551Z,17.27
2022-10-29T17:18:07.677Z,17.29
2022-10-29T17:20:35.655Z,16.93
2022-10-29T17:23:03.664Z,16.88
2022-10-29T17:25:31.694Z,16.83
2022-10-29T17:28:00.095Z,16.57
2022-10-29T17:30:28.370Z,16.96
2022-10-29T17:32:57.865Z,17.40
2022-10-29T17:35:26.061Z,16.92
2022-10-29T17:37:54.110Z,16.35
2022-10-29T17:40:22.043Z,16.88
2022-10-29T17:42:50.117Z,16.26
2022-10-29T17:45:20.509Z,16.56
2022-10-29T17:47:48.546Z,16.36
2022-10-29T17:50:17.958Z,16.23
2022-10-29T17:52:45.963Z,16.12
2022-10-29T17:55:13.935Z,16.06
2022-10-29T17:57:41.901Z,16.23
2022-10-29T18:00:11.325Z,16.13
2022-10-29T18:02:39.354Z,16.36
2022-10-29T18:05:08.357Z,16.09
2022-10-29T18:07:37.692Z,16.20
2022-10-29T18:10:06.238Z,16.46
2022-10-29T18:12:34.283Z,16.14
2022-10-29T18:15:02.229Z,16.19
2022-10-29T18:17:30.331Z,16.31
2022-10-29T18:19:58.342Z,16.02
2022-10-29T18:22:26.352Z,15.82
2022-10-29T18:24:55.770Z,16.37
2022-10-29T18:27:23.820Z,16.19
2022-10-29T18:29:51.916Z,16.09
2022-10-29T18:32:20.082Z,16.54
2022-10-29T18:34:48.042Z,16.01
2022-10-29T18:37:16.211Z,15.71
2022-10-29T18:39:44.168Z,15.38
2022-10-29T18:42:13.498Z,15.19
2022-10-29T18:44:41.477Z,16.02
2022-10-29T18:47:09.452Z,15.57
2022-10-29T18:49:37.474Z,15.39
2022-10-29T18:52:05.557Z,15.68
2022-10-29T18:54:33.651Z,15.67
2022-10-29T18:57:01.753Z,15.53
2022-10-29T18:59:31.102Z,14.94
2022-10-29T19:01:59.218Z,15.21
2022-10-29T19:04:27.257Z,14.94
2022-10-29T19:06:55.409Z,15.40
2022-10-29T19:09:23.439Z,14.99
2022-10-29T19:11:55.318Z,14.88
2022-10-29T19:14:26.364Z,14.43
2022-10-29T19:16:55.788Z,14.85
2022-10-29T19:19:24.130Z,14.99
2022-10-29T19:21:52.303Z,14.98
2022-10-29T19:24:20.514Z,14.78
2022-10-29T19:26:48.652Z,14.63
2022-10-29T19:29:16.587Z,14.62
2022-10-29T19:31:45.943Z,14.63
2022-10-29T19:34:15.369Z,14.87
2022-10-29T19:36:43.358Z,14.58
2022-10-29T19:39:11.319Z,14.53
2022-10-29T19:41:39.343Z,14.58
2022-10-29T19:44:07.658Z,14.70
2022-10-29T19:46:35.667Z,15.14
2022-10-29T19:49:03.662Z,14.48
2022-10-29T19:51:33.089Z,14.78
2022-10-29T19:54:02.447Z,14.59
2022-10-29T19:56:30.521Z,14.74
2022-10-29T19:58:58.546Z,14.80
2022-10-29T20:01:26.689Z,14.88
2022-10-29T20:03:54.780Z,14.85
2022-10-29T20:06:22.764Z,14.65
2022-10-29T20:08:52.091Z,14.49
2022-10-29T20:11:20.261Z,14.57
2022-10-29T20:13:48.197Z,14.86
2022-10-29T20:16:18.748Z,14.86
2022-10-29T20:18:47.137Z,15.10
2022-10-29T20:21:15.746Z,15.60
2022-10-29T20:23:44.746Z,15.78
2022-10-29T20:26:14.169Z,15.12
2022-10-29T20:28:42.268Z,15.27
2022-10-29T20:31:15.298Z,15.37
2022-10-29T20:33:43.728Z,15.25
2022-10-29T20:36:11.737Z,14.97
2022-10-29T20:38:39.741Z,14.87
2022-10-29T20:41:07.719Z,14.61
2022-10-29T20:43:37.112Z,15.03
2022-10-29T20:46:05.457Z,14.70
2022-10-29T20:48:36.251Z,14.38
2022-10-29T20:51:05.028Z,14.89
2022-10-29T20:53:33.142Z,14.66
2022-10-29T20:56:01.151Z,14.78
2022-10-29T20:58:29.458Z,14.60
2022-10-29T21:01:05.793Z,14.66
2022-10-29T21:03:33.970Z,14.65
2022-10-29T21:06:03.121Z,14.33
2022-10-29T21:08:31.294Z,14.85
2022-10-29T21:11:00.398Z,14.38
2022-10-29T21:13:28.431Z,14.32
2022-10-29T21:16:04.437Z,14.42
2022-10-29T21:18:32.470Z,14.73
2022-10-29T21:21:04.031Z,14.58
2022-10-29T21:23:33.325Z,14.82
2022-10-29T21:26:01.526Z,14.19
2022-10-29T21:28:29.541Z,14.41
2022-10-29T21:30:58.955Z,14.09
2022-10-29T21:33:26.908Z,14.48
2022-10-29T21:35:56.008Z,14.33
2022-10-29T21:38:25.433Z,14.36
2022-10-29T21:40:53.904Z,14.40
2022-10-29T21:43:22.570Z,14.30
2022-10-29T21:45:52.231Z,14.88
2022-10-29T21:48:22.223Z,15.54
2022-10-29T21:50:50.182Z,15.86
2022-10-29T21:53:18.167Z,14.94
2022-10-29T21:55:46.126Z,14.61
2022-10-29T21:58:14.118Z,15.34
2022-10-29T22:00:42.082Z,15.49
2022-10-29T22:03:10.073Z,15.49
2022-10-29T22:05:39.398Z,15.40
2022-10-29T22:08:07.411Z,15.03
2022-10-29T22:10:35.502Z,15.22
2022-10-29T22:13:03.541Z,15.41
2022-10-29T22:15:31.548Z,15.95
2022-10-29T22:17:59.572Z,16.12
2022-10-29T22:20:27.605Z,16.25
2022-10-29T22:22:57.247Z,16.40
2022-10-29T22:25:25.609Z,16.44
2022-10-29T22:27:53.586Z,16.08
2022-10-29T22:30:21.539Z,16.10
2022-10-29T22:32:49.782Z,15.36
2022-10-29T22:35:17.816Z,15.03
2022-10-29T22:37:45.849Z,15.18
2022-10-29T22:40:15.347Z,15.38
2022-10-29T22:42:43.304Z,15.69
2022-10-29T22:45:11.991Z,15.53
2022-10-29T22:47:40.019Z,15.80
2022-10-29T22:50:08.437Z,15.73
2022-10-29T22:52:36.463Z,15.81
2022-10-29T22:55:05.169Z,15.37
2022-10-29T22:57:34.546Z,15.49
2022-10-29T23:00:02.518Z,14.91
2022-10-29T23:02:30.598Z,15.19
2022-10-29T23:04:58.651Z,15.75
2022-10-29T23:07:26.662Z,15.88
2022-10-29T23:09:54.960Z,15.28
2022-10-29T23:12:22.949Z,15.15
2022-10-29T23:14:52.359Z,14.85
2022-10-29T23:17:20.325Z,14.72
2022-10-29T23:19:48.436Z,14.87
2022-10-29T23:22:16.590Z,14.26
2022-10-29T23:24:44.648Z,14.31
2022-10-29T23:27:12.645Z,13.94
2022-10-29T23:29:40.679Z,14.07
2022-10-29T23:32:10.046Z,14.10
2022-10-29T23:34:37.996Z,14.16
2022-10-29T23:37:08.875Z,14.15
2022-10-29T23:39:38.308Z,13.67
2022-10-29T23:42:06.401Z,13.81
2022-10-29T23:44:34.378Z,14.15
2022-10-29T23:47:02.322Z,14.03
2022-10-29T23:49:31.739Z,14.10
2022-10-29T23:51:59.720Z,14.32
2022-10-29T23:54:27.686Z,14.26
2022-10-29T23:56:55.623Z,14.02
2022-10-29T23:59:23.603Z,14.11
